Time;durP1;ratioP1;P1;durP2;ratioP2;P2;SDS_P1;SDS_P2;PMS_P1;PMS_P2;Temp;Humidity;BMP_temperature;BMP_pressure;BME280_temperature;BME280_humidity;BME280_pressure;Samples;Min_cycle;Max_cycle;Signal;HPM_P1;HPM_P2
2023/05/24 00:01:09;;;;;;;;;;;;;;;14.91;56.73;98596.56;7375558;19;19937;-79
2023/05/24 00:03:38;;;;;;;;;;;;;;;15.07;57.80;98596.41;7375288;19;22325;-78
2023/05/24 00:06:05;;;;;;;;;;;;;;;15.01;56.42;98585.63;7381029;19;19918;-79
2023/05/24 00:08:32;;;;;;;;;;;;;;;15.07;56.17;98595.59;7380887;19;19929;-81
2023/05/24 00:10:59;;;;;;;;;;;;;;;15.12;55.81;98596.72;7379903;19;19926;-78
2023/05/24 00:13:26;;;;;;;;;;;;;;;15.12;56.02;98590.56;7381680;19;19919;-78
2023/05/24 00:15:53;;;;;;;;;;;;;;;15.13;55.39;98587.69;7377908;19;20014;-77
2023/05/24 00:18:20;;;;;;;;;;;;;;;14.85;55.84;98584.78;7377442;19;19918;-79
2023/05/24 00:20:46;;;;;;;;;;;;;;;14.97;54.83;98576.34;7375417;19;19918;-80
2023/05/24 00:23:14;;;;;;;;;;;;;;;14.93;54.02;98578.56;7377751;19;20468;-79
2023/05/24 00:25:40;;;;;;;;;;;;;;;14.89;54.80;98582.56;7379312;19;19922;-78
2023/05/24 00:28:07;;;;;;;;;;;;;;;14.85;55.18;98583.94;7379908;19;19919;-79
2023/05/24 00:30:34;;;;;;;;;;;;;;;14.97;55.50;98576.34;7377117;19;19919;-77
2023/05/24 00:33:01;;;;;;;;;;;;;;;14.83;54.93;98576.13;7379833;19;19922;-77
2023/05/24 00:35:29;;;;;;;;;;;;;;;14.82;54.98;98570.97;7380383;19;19941;-80
2023/05/24 00:37:56;;;;;;;;;;;;;;;14.84;55.71;98569.78;7373312;19;19936;-77
2023/05/24 00:40:22;;;;;;;;;;;;;;;14.92;56.56;98566.22;7379493;19;19918;-77
2023/05/24 00:42:49;;;;;;;;;;;;;;;14.89;55.73;98563.94;7378172;19;20337;-79
2023/05/24 00:45:16;;;;;;;;;;;;;;;14.91;55.89;98572.56;7377252;19;19926;-79
2023/05/24 00:47:42;;;;;;;;;;;;;;;14.95;56.22;98573.03;7381486;19;19926;-77
2023/05/24 00:50:11;;;;;;;;;;;;;;;14.60;55.45;98575.28;7376239;19;19939;-76
2023/05/24 00:52:39;;;;;;;;;;;;;;;14.60;55.81;98567.31;7375427;19;19922;-76
2023/05/24 00:55:06;;;;;;;;;;;;;;;14.61;56.10;98571.63;7376418;19;19929;-77
2023/05/24 00:57:34;;;;;;;;;;;;;;;14.71;57.84;98557.06;7376050;19;19915;-77
2023/05/24 01:00:01;;;;;;;;;;;;;;;14.69;56.42;98560.91;7377253;19;19925;-81
2023/05/24 01:02:28;;;;;;;;;;;;;;;14.63;56.93;98558.97;7376433;19;20360;-81
2023/05/24 01:04:55;;;;;;;;;;;;;;;14.68;56.34;98562.75;7376609;19;19919;-77
2023/05/24 01:07:39;;;;;;;;;;;;;;;14.46;56.30;98563.53;7376384;19;19922;-78
2023/05/24 01:10:13;;;;;;;;;;;;;;;14.50;56.62;98559.50;7373625;19;19929;-78
2023/05/24 01:12:40;;;;;;;;;;;;;;;14.35;57.16;98562.09;7370941;19;19929;-76
2023/05/24 01:15:17;;;;;;;;;;;;;;;14.39;57.78;98563.41;7375349;19;20273;-77
2023/05/24 01:18:04;;;;;;;;;;;;;;;14.42;58.19;98563.03;7372918;19;19925;-77
2023/05/24 01:20:31;;;;;;;;;;;;;;;14.39;57.55;98568.72;7374250;19;19987;-77
2023/05/24 01:23:03;;;;;;;;;;;;;;;14.50;58.36;98570.16;7363828;19;19922;-77
2023/05/24 01:25:49;;;;;;;;;;;;;;;14.41;57.47;98561.41;7364468;19;19914;-77
2023/05/24 01:28:16;;;;;;;;;;;;;;;14.44;58.37;98563.69;7374477;19;19918;-78
2023/05/24 01:30:43;;;;;;;;;;;;;;;14.34;57.51;98564.94;7374808;19;19918;-76
2023/05/24 01:33:10;;;;;;;;;;;;;;;14.41;57.85;98561.41;7368843;19;19924;-77
2023/05/24 01:35:41;;;;;;;;;;;;;;;14.41;57.85;98566.72;7373792;19;19915;-77
2023/05/24 01:38:09;;;;;;;;;;;;;;;14.42;58.07;98568.38;7371847;19;19919;-77
2023/05/24 01:40:37;;;;;;;;;;;;;;;14.43;58.87;98567.38;7375739;19;20326;-77
2023/05/24 01:43:05;;;;;;;;;;;;;;;14.25;58.01;98564.97;7368825;19;20002;-77
2023/05/24 01:45:54;;;;;;;;;;;;;;;14.41;59.14;98566.72;7374213;19;19923;-77
2023/05/24 01:48:21;;;;;;;;;;;;;;;14.20;59.07;98569.16;7379137;19;20264;-78
2023/05/24 01:50:48;;;;;;;;;;;;;;;14.12;59.44;98571.88;7380034;19;20268;-77
2023/05/24 01:53:17;;;;;;;;;;;;;;;14.00;59.26;98574.91;7371315;19;19930;-78
2023/05/24 01:55:43;;;;;;;;;;;;;;;14.18;59.64;98587.13;7376321;19;20315;-77
2023/05/24 01:58:10;;;;;;;;;;;;;;;14.17;59.68;98580.16;7376630;19;19936;-76
2023/05/24 02:00:37;;;;;;;;;;;;;;;14.12;59.50;98579.84;7377153;19;19930;-77
2023/05/24 02:03:04;;;;;;;;;;;;;;;14.20;60.02;98572.66;7369464;19;19915;-77
2023/05/24 02:05:32;;;;;;;;;;;;;;;14.14;59.88;98586.66;7378746;19;19938;-75
2023/05/24 02:08:02;;;;;;;;;;;;;;;14.10;59.55;98581.84;7376929;19;19918;-77
2023/05/24 02:10:28;;;;;;;;;;;;;;;13.88;59.88;98586.09;7379762;19;19922;-77
2023/05/24 02:12:55;;;;;;;;;;;;;;;14.09;60.10;98586.34;7376094;19;19914;-77
2023/05/24 02:15:22;;;;;;;;;;;;;;;14.13;60.71;98586.81;7375228;19;19918;-77
2023/05/24 02:17:49;;;;;;;;;;;;;;;14.12;60.25;98590.50;7375839;19;19921;-77
2023/05/24 02:20:17;;;;;;;;;;;;;;;14.16;60.62;98586.47;7376612;19;19933;-77
2023/05/24 02:22:43;;;;;;;;;;;;;;;14.00;60.37;98593.50;7372270;19;19930;-77
2023/05/24 02:25:10;;;;;;;;;;;;;;;14.05;60.57;98588.50;7379948;19;20810;-76
2023/05/24 02:27:37;;;;;;;;;;;;;;;14.12;60.84;98587.84;7379173;19;19919;-76
2023/05/24 02:30:05;;;;;;;;;;;;;;;14.07;60.51;98587.53;7373767;19;19931;-79
2023/05/24 02:32:32;;;;;;;;;;;;;;;13.83;60.92;98589.28;7371713;19;19998;-76
2023/05/24 02:35:00;;;;;;;;;;;;;;;13.99;61.26;98591.03;7373744;19;20007;-75
2023/05/24 02:37:27;;;;;;;;;;;;;;;14.03;61.36;98601.19;7376125;19;19919;-77
2023/05/24 02:39:53;;;;;;;;;;;;;;;13.93;61.57;98597.03;7375684;19;20359;-76
2023/05/24 02:42:21;;;;;;;;;;;;;;;13.96;62.24;98589.56;7371309;19;19927;-77
2023/05/24 02:44:48;;;;;;;;;;;;;;;13.95;62.41;98593.19;7375867;19;20585;-76
2023/05/24 02:47:15;;;;;;;;;;;;;;;13.96;63.20;98600.19;7375208;19;20013;-75
2023/05/24 02:49:42;;;;;;;;;;;;;;;13.83;62.62;98594.59;7373792;19;19919;-75
2023/05/24 02:52:09;;;;;;;;;;;;;;;13.86;62.58;98591.59;7373819;19;19926;-77
2023/05/24 02:54:36;;;;;;;;;;;;;;;13.81;63.72;98593.94;7373103;19;19918;-77
2023/05/24 02:57:05;;;;;;;;;;;;;;;13.83;62.85;98589.28;7370788;19;19965;-77
2023/05/24 02:59:32;;;;;;;;;;;;;;;13.91;63.05;98588.41;7374201;19;19933;-75
2023/05/24 03:01:59;;;;;;;;;;;;;;;13.79;62.90;98587.94;7370131;19;20401;-75
2023/05/24 03:04:26;;;;;;;;;;;;;;;13.84;62.97;98583.75;7371724;19;19927;-75
2023/05/24 03:06:53;;;;;;;;;;;;;;;13.91;63.30;98591.91;7362140;19;19938;-75
2023/05/24 03:09:20;;;;;;;;;;;;;;;13.84;63.46;98585.59;7371938;19;19926;-76
2023/05/24 03:11:48;;;;;;;;;;;;;;;13.79;62.89;98595.91;7369283;19;19919;-74
2023/05/24 03:14:16;;;;;;;;;;;;;;;13.60;63.02;98605.09;7374746;19;19923;-75
2023/05/24 03:16:42;;;;;;;;;;;;;;;13.50;63.78;98602.63;7369116;19;19935;-77
2023/05/24 03:19:10;;;;;;;;;;;;;;;13.58;64.07;98585.84;7374615;19;19919;-75
2023/05/24 03:21:36;;;;;;;;;;;;;;;13.66;64.16;98593.78;7370158;19;19936;-76
2023/05/24 03:24:04;;;;;;;;;;;;;;;13.61;64.36;98594.31;7372253;19;19911;-76
2023/05/24 03:26:31;;;;;;;;;;;;;;;13.70;64.03;98591.63;7199117;19;3422185;-76
2023/05/24 03:28:57;;;;;;;;;;;;;;;13.72;64.91;98593.13;7371253;19;20343;-76
2023/05/24 03:31:30;;;;;;;;;;;;;;;13.64;63.71;98589.63;7372650;19;19960;-75
2023/05/24 03:33:57;;;;;;;;;;;;;;;13.70;64.06;98587.16;7375020;19;19923;-76
2023/05/24 03:36:26;;;;;;;;;;;;;;;13.64;63.71;98584.31;7371789;19;19994;-76
2023/05/24 03:38:54;;;;;;;;;;;;;;;13.45;64.46;98591.66;7372242;19;19915;-76
2023/05/24 03:41:21;;;;;;;;;;;;;;;13.54;64.78;98580.03;7370462;19;19915;-76
2023/05/24 03:43:48;;;;;;;;;;;;;;;13.44;64.61;98589.19;7372922;19;20254;-75
2023/05/24 03:46:16;;;;;;;;;;;;;;;13.48;64.87;98602.00;7370788;19;19922;-75
2023/05/24 03:48:43;;;;;;;;;;;;;;;13.39;64.83;98597.66;7377421;19;20507;-77
2023/05/24 03:51:09;;;;;;;;;;;;;;;13.33;65.04;98593.03;7373099;19;19974;-74
2023/05/24 03:53:36;;;;;;;;;;;;;;;13.44;65.50;98591.84;7365407;19;19944;-74
2023/05/24 03:56:03;;;;;;;;;;;;;;;13.35;64.93;98591.88;7362571;19;19926;-75
2023/05/24 03:58:30;;;;;;;;;;;;;;;13.47;65.20;98591.50;7368292;19;19910;-75
2023/05/24 04:00:59;;;;;;;;;;;;;;;13.49;65.03;98585.03;7373075;19;19918;-77
2023/05/24 04:03:26;;;;;;;;;;;;;;;13.36;65.00;98582.88;7371305;19;20282;-76
2023/05/24 04:05:53;;;;;;;;;;;;;;;13.33;64.42;98580.56;7372130;19;19918;-77
2023/05/24 04:08:21;;;;;;;;;;;;;;;13.43;65.15;98588.38;7372595;19;19926;-75
2023/05/24 04:10:47;;;;;;;;;;;;;;;13.37;64.92;98579.22;7371066;19;20002;-76
2023/05/24 04:13:14;;;;;;;;;;;;;;;13.36;65.28;98582.06;7370020;19;19941;-76
2023/05/24 04:15:42;;;;;;;;;;;;;;;13.49;65.20;98579.72;7373164;19;19925;-75
2023/05/24 04:18:10;;;;;;;;;;;;;;;13.41;65.49;98584.22;7373458;19;19918;-76
2023/05/24 04:20:38;;;;;;;;;;;;;;;13.38;65.41;98586.22;7374628;19;19925;-75
2023/05/24 04:23:05;;;;;;;;;;;;;;;13.44;65.29;98584.72;7368585;19;19933;-75
2023/05/24 04:25:32;;;;;;;;;;;;;;;13.34;65.60;98581.41;7370843;19;19919;-76
2023/05/24 04:28:01;;;;;;;;;;;;;;;13.33;65.22;98585.06;7370871;19;19934;-75
2023/05/24 04:30:30;;;;;;;;;;;;;;;13.44;65.39;98586.53;7368305;19;19922;-76
2023/05/24 04:32:57;;;;;;;;;;;;;;;13.25;64.83;98583.22;7369936;19;19926;-75
2023/05/24 04:35:24;;;;;;;;;;;;;;;13.40;65.97;98596.66;7370099;19;20868;-76
2023/05/24 04:37:52;;;;;;;;;;;;;;;13.33;65.69;98598.34;7370261;19;19919;-76
2023/05/24 04:40:19;;;;;;;;;;;;;;;13.32;65.29;98586.03;7371330;19;19998;-76
2023/05/24 04:42:46;;;;;;;;;;;;;;;13.10;65.63;98595.50;7372024;19;19918;-76
2023/05/24 04:45:13;;;;;;;;;;;;;;;13.15;65.57;98590.53;7374650;19;19922;-77
2023/05/24 04:47:39;;;;;;;;;;;;;;;13.29;66.17;98597.84;7374366;19;19919;-76
2023/05/24 04:50:07;;;;;;;;;;;;;;;13.11;65.56;98595.34;7375023;19;19922;-77
2023/05/24 04:52:35;;;;;;;;;;;;;;;13.10;65.23;98598.16;7372901;19;19926;-76
2023/05/24 04:55:02;;;;;;;;;;;;;;;13.01;65.73;98607.13;7368650;19;19929;-76
2023/05/24 04:57:29;;;;;;;;;;;;;;;13.22;66.19;98610.13;7367697;19;19929;-74
2023/05/24 04:59:56;;;;;;;;;;;;;;;13.26;66.00;98613.25;7367356;19;19915;-74
2023/05/24 05:02:25;;;;;;;;;;;;;;;13.28;66.11;98606.00;7365898;19;20564;-76
2023/05/24 05:04:52;;;;;;;;;;;;;;;13.10;66.26;98609.59;7375223;19;19951;-74
2023/05/24 05:07:19;;;;;;;;;;;;;;;13.31;66.21;98614.44;7374227;19;19922;-77
2023/05/24 05:09:46;;;;;;;;;;;;;;;13.01;65.67;98615.94;7376787;19;19951;-75
2023/05/24 05:12:13;;;;;;;;;;;;;;;12.90;66.49;98614.44;7372335;19;19982;-76
2023/05/24 05:14:39;;;;;;;;;;;;;;;12.92;66.69;98624.88;7372104;19;19923;-75
2023/05/24 05:17:06;;;;;;;;;;;;;;;13.16;66.64;98616.06;7371847;19;19930;-77
2023/05/24 05:19:33;;;;;;;;;;;;;;;13.17;66.32;98613.28;7367714;19;19929;-77
2023/05/24 05:21:59;;;;;;;;;;;;;;;13.20;65.89;98616.59;7364853;19;19922;-75
2023/05/24 05:24:26;;;;;;;;;;;;;;;13.34;66.27;98615.94;7375091;19;19930;-76
2023/05/24 05:26:53;;;;;;;;;;;;;;;13.30;66.63;98614.63;7377283;19;19925;-77
2023/05/24 05:29:20;;;;;;;;;;;;;;;13.31;65.90;98613.63;7377061;19;19936;-75
2023/05/24 05:31:49;;;;;;;;;;;;;;;13.34;65.83;98613.28;7373074;19;19918;-76
2023/05/24 05:34:16;;;;;;;;;;;;;;;13.31;66.29;98613.63;7372259;19;19926;-75
2023/05/24 05:36:43;;;;;;;;;;;;;;;13.26;65.73;98615.91;7371429;19;19914;-76
2023/05/24 05:39:09;;;;;;;;;;;;;;;13.16;66.14;98610.75;7376300;19;20022;-75
2023/05/24 05:41:37;;;;;;;;;;;;;;;13.17;65.69;98612.44;7376239;19;19933;-76
2023/05/24 05:44:04;;;;;;;;;;;;;;;13.06;64.78;98604.78;7371890;19;19918;-76
2023/05/24 05:46:31;;;;;;;;;;;;;;;13.22;65.41;98610.13;7376571;19;19927;-75
2023/05/24 05:48:58;;;;;;;;;;;;;;;13.34;66.01;98614.09;7378344;19;19923;-75
2023/05/24 05:51:25;;;;;;;;;;;;;;;13.46;65.06;98600.50;7378887;19;19914;-75
2023/05/24 05:53:52;;;;;;;;;;;;;;;13.60;64.92;98605.94;7378504;19;19917;-76
2023/05/24 05:56:18;;;;;;;;;;;;;;;13.69;64.16;98595.28;7382266;19;19922;-76
2023/05/24 05:58:45;;;;;;;;;;;;;;;13.85;64.65;98603.22;7381058;19;19919;-76
2023/05/24 06:01:12;;;;;;;;;;;;;;;13.98;64.51;98602.66;7381058;19;19928;-76
2023/05/24 06:03:39;;;;;;;;;;;;;;;13.88;63.37;98599.41;7378583;19;19944;-76
2023/05/24 06:06:05;;;;;;;;;;;;;;;13.96;62.75;98610.00;7379507;19;19929;-76
2023/05/24 06:08:39;;;;;;;;;;;;;;;13.93;61.77;98605.88;7379430;19;19927;-75
2023/05/24 06:11:06;;;;;;;;;;;;;;;14.08;62.72;98613.13;7379151;19;19923;-76
2023/05/24 06:13:33;;;;;;;;;;;;;;;13.99;60.93;98610.50;7378746;19;19923;-76
2023/05/24 06:16:00;;;;;;;;;;;;;;;14.08;62.46;98610.47;7379550;19;20261;-75
2023/05/24 06:18:29;;;;;;;;;;;;;;;14.16;63.11;98613.09;7382971;19;19939;-75
2023/05/24 06:20:56;;;;;;;;;;;;;;;14.19;63.27;98604.75;7377651;19;19968;-76
2023/05/24 06:23:22;;;;;;;;;;;;;;;14.09;60.31;98610.28;7379486;19;19921;-75
2023/05/24 06:25:49;;;;;;;;;;;;;;;14.20;61.88;98612.56;7377309;19;20014;-74
2023/05/24 06:28:16;;;;;;;;;;;;;;;14.27;62.37;98610.88;7370521;19;20312;-75
2023/05/24 06:30:43;;;;;;;;;;;;;;;14.19;61.23;98608.25;7379919;19;19931;-75
2023/05/24 06:33:10;;;;;;;;;;;;;;;14.29;62.67;98608.03;7377129;19;19996;-75
2023/05/24 06:35:36;;;;;;;;;;;;;;;14.20;60.92;98614.41;7379659;19;19923;-76
2023/05/24 06:38:03;;;;;;;;;;;;;;;14.15;61.30;98616.75;7375242;19;19919;-76
2023/05/24 06:40:30;;;;;;;;;;;;;;;14.09;60.25;98610.28;7379568;19;20024;-76
2023/05/24 06:42:57;;;;;;;;;;;;;;;13.90;60.00;98616.00;7375407;19;20353;-76
2023/05/24 06:45:24;;;;;;;;;;;;;;;13.92;61.36;98620.16;7380314;19;19918;-75
2023/05/24 06:47:51;;;;;;;;;;;;;;;14.03;61.84;98629.59;7375591;19;19919;-77
2023/05/24 06:50:18;;;;;;;;;;;;;;;13.99;61.08;98628.28;7378754;19;19927;-77
2023/05/24 06:52:44;;;;;;;;;;;;;;;13.78;60.01;98640.31;7379300;19;20019;-76
2023/05/24 06:55:11;;;;;;;;;;;;;;;13.79;60.50;98635.81;7377411;19;20535;-75
2023/05/24 06:57:38;;;;;;;;;;;;;;;13.92;61.81;98637.94;7380347;19;19929;-75
2023/05/24 07:00:10;;;;;;;;;;;;;;;13.68;60.38;98647.63;7378631;19;20432;-75
2023/05/24 07:02:37;;;;;;;;;;;;;;;13.75;60.81;98655.78;7374990;19;19929;-77
2023/05/24 07:05:05;;;;;;;;;;;;;;;13.73;61.08;98658.59;7379875;19;19923;-76
2023/05/24 07:07:32;;;;;;;;;;;;;;;13.60;61.53;98659.09;7380185;19;20138;-77
2023/05/24 07:09:59;;;;;;;;;;;;;;;13.73;61.49;98666.56;7377195;19;19915;-74
2023/05/24 07:12:25;;;;;;;;;;;;;;;13.65;61.29;98663.91;7376494;19;20369;-77
2023/05/24 07:14:54;;;;;;;;;;;;;;;13.45;60.52;98667.91;7378863;19;19926;-76
2023/05/24 07:17:21;;;;;;;;;;;;;;;13.59;61.74;98667.25;7381002;19;19919;-76
2023/05/24 07:19:51;;;;;;;;;;;;;;;13.57;60.32;98666.59;7381961;19;19934;-75
2023/05/24 07:22:18;;;;;;;;;;;;;;;13.58;59.92;98671.72;7373620;19;19923;-78
2023/05/24 07:24:44;;;;;;;;;;;;;;;13.73;60.58;98673.72;7380020;19;20361;-76
2023/05/24 07:27:11;;;;;;;;;;;;;;;13.49;60.79;98671.91;7374565;19;20352;-76
2023/05/24 07:29:38;;;;;;;;;;;;;;;13.87;61.84;98680.16;7378843;19;19933;-76
2023/05/24 07:32:04;;;;;;;;;;;;;;;14.11;62.15;98665.97;7371850;19;19923;-76
2023/05/24 07:34:31;;;;;;;;;;;;;;;14.28;61.92;98672.91;7377504;19;19919;-75
2023/05/24 07:36:59;;;;;;;;;;;;;;;14.33;60.35;98675.06;7372369;19;19923;-75
2023/05/24 07:39:26;;;;;;;;;;;;;;;14.43;61.04;98679.19;7381100;19;19973;-75
2023/05/24 07:41:53;;;;;;;;;;;;;;;14.55;60.67;98678.81;7374019;19;19975;-75
2023/05/24 07:44:20;;;;;;;;;;;;;;;14.49;59.83;98678.47;7371514;19;19914;-75
2023/05/24 07:46:46;;;;;;;;;;;;;;;14.61;59.64;98680.78;7368421;19;19926;-76
2023/05/24 07:49:16;;;;;;;;;;;;;;;14.54;58.48;98678.00;7371784;19;19937;-76
2023/05/24 07:51:44;;;;;;;;;;;;;;;14.57;59.97;98682.16;7371641;19;19927;-75
2023/05/24 07:54:10;;;;;;;;;;;;;;;14.50;59.88;98674.81;7372385;19;19910;-75
2023/05/24 07:56:37;;;;;;;;;;;;;;;14.43;58.63;98687.16;7376501;19;19930;-76
2023/05/24 07:59:04;;;;;;;;;;;;;;;14.47;60.16;98683.13;7375229;19;19928;-77
2023/05/24 08:01:31;;;;;;;;;;;;;;;14.22;59.13;98679.75;7378756;19;19914;-76
2023/05/24 08:03:57;;;;;;;;;;;;;;;13.82;58.98;98699.28;7374951;19;20455;-76
2023/05/24 08:06:24;;;;;;;;;;;;;;;13.97;59.57;98699.44;7373223;19;19923;-75
2023/05/24 08:08:52;;;;;;;;;;;;;;;13.87;59.37;98699.63;7378381;19;19911;-77
2023/05/24 08:11:19;;;;;;;;;;;;;;;13.91;59.33;98698.28;7375613;19;19921;-75
2023/05/24 08:13:46;;;;;;;;;;;;;;;13.91;59.11;98695.63;7373821;19;19923;-75
2023/05/24 08:16:13;;;;;;;;;;;;;;;14.10;61.01;98698.91;7373098;19;19922;-74
2023/05/24 08:18:40;;;;;;;;;;;;;;;13.98;59.94;98698.44;7378174;19;19930;-77
2023/05/24 08:21:07;;;;;;;;;;;;;;;14.02;61.05;98705.91;7375257;19;20019;-76
2023/05/24 08:23:35;;;;;;;;;;;;;;;13.72;60.15;98702.16;7371333;19;19919;-78
2023/05/24 08:26:01;;;;;;;;;;;;;;;13.76;60.22;98710.59;7375952;19;19919;-77
2023/05/24 08:28:28;;;;;;;;;;;;;;;13.94;60.56;98711.25;7380909;19;19914;-78
2023/05/24 08:30:56;;;;;;;;;;;;;;;14.17;62.15;98707.88;7370304;19;19923;-76
2023/05/24 08:33:23;;;;;;;;;;;;;;;14.34;60.89;98701.50;7371557;19;19982;-77
2023/05/24 08:35:50;;;;;;;;;;;;;;;14.58;61.24;98707.75;7372331;19;19915;-76
2023/05/24 08:38:18;;;;;;;;;;;;;;;14.59;58.68;98704.94;7372571;19;19915;-76
2023/05/24 08:40:44;;;;;;;;;;;;;;;14.56;59.29;98707.09;7374582;19;19926;-77
2023/05/24 08:43:11;;;;;;;;;;;;;;;14.44;59.42;98707.44;7378102;19;19919;-77
2023/05/24 08:45:38;;;;;;;;;;;;;;;14.48;59.76;98706.13;7372218;19;19933;-78
2023/05/24 08:48:05;;;;;;;;;;;;;;;14.48;59.50;98711.44;7376521;19;19918;-77
2023/05/24 08:50:33;;;;;;;;;;;;;;;14.44;59.33;98712.78;7378237;19;20252;-76
2023/05/24 08:53:03;;;;;;;;;;;;;;;14.43;59.43;98711.13;7371302;19;19927;-76
2023/05/24 08:55:30;;;;;;;;;;;;;;;14.39;60.00;98712.47;7373540;19;19975;-77
2023/05/24 08:57:59;;;;;;;;;;;;;;;14.48;59.73;98713.25;7376546;19;19921;-76
2023/05/24 09:00:26;;;;;;;;;;;;;;;14.38;59.98;98705.47;7378464;19;19922;-77
2023/05/24 09:02:53;;;;;;;;;;;;;;;14.52;60.01;98706.59;7373757;19;19915;-76
2023/05/24 09:05:23;;;;;;;;;;;;;;;14.47;59.86;98716.91;7367725;19;20451;-75
2023/05/24 09:07:49;;;;;;;;;;;;;;;14.54;60.28;98709.94;7371476;19;20246;-75
2023/05/24 09:10:17;;;;;;;;;;;;;;;14.60;60.56;98703.09;7373446;19;19922;-76
2023/05/24 09:12:45;;;;;;;;;;;;;;;14.44;58.84;98704.78;7371370;19;19926;-77
2023/05/24 09:15:12;;;;;;;;;;;;;;;14.16;59.73;98707.03;7373033;19;19925;-77
2023/05/24 09:17:42;;;;;;;;;;;;;;;14.19;60.01;98716.50;7375610;19;19922;-76
2023/05/24 09:20:12;;;;;;;;;;;;;;;14.08;60.29;98711.56;7370837;19;19930;-76
2023/05/24 09:22:42;;;;;;;;;;;;;;;14.20;60.45;98711.03;7369682;19;19946;-77
2023/05/24 09:25:09;;;;;;;;;;;;;;;14.26;60.58;98710.34;7371833;19;19929;-76
2023/05/24 09:27:37;;;;;;;;;;;;;;;14.23;60.27;98715.19;7375600;19;20669;-76
2023/05/24 09:30:08;;;;;;;;;;;;;;;14.33;60.00;98705.16;7369225;19;19923;-76
2023/05/24 09:32:36;;;;;;;;;;;;;;;14.30;61.17;98712.66;7373530;19;19974;-76
2023/05/24 09:35:07;;;;;;;;;;;;;;;14.24;60.87;98724.81;7371894;19;20304;-76
2023/05/24 09:37:34;;;;;;;;;;;;;;;14.43;61.42;98715.63;7369171;19;19951;-77
2023/05/24 09:40:05;;;;;;;;;;;;;;;14.27;60.07;98727.16;7368619;19;19945;-78
2023/05/24 09:42:32;;;;;;;;;;;;;;;14.27;60.06;98724.50;7372180;19;19919;-76
2023/05/24 09:45:10;;;;;;;;;;;;;;;14.21;60.55;98725.16;7374673;19;19918;-75
2023/05/24 09:47:39;;;;;;;;;;;;;;;14.15;60.06;98731.16;7377943;19;19919;-74
2023/05/24 09:50:12;;;;;;;;;;;;;;;14.18;60.98;98726.31;7373266;19;19935;-77
2023/05/24 09:52:39;;;;;;;;;;;;;;;14.06;60.79;98717.06;7373049;19;19918;-76
2023/05/24 09:55:13;;;;;;;;;;;;;;;14.10;60.34;98720.19;7371751;19;19925;-77
2023/05/24 09:57:40;;;;;;;;;;;;;;;14.00;61.05;98721.19;7374090;19;19926;-75
2023/05/24 10:00:16;;;;;;;;;;;;;;;13.96;60.81;98722.56;7365292;19;20291;-75
2023/05/24 10:02:43;;;;;;;;;;;;;;;13.96;60.79;98724.38;7369572;19;20300;-76
2023/05/24 10:05:18;;;;;;;;;;;;;;;14.10;60.46;98721.03;7369488;19;19958;-77
2023/05/24 10:07:45;;;;;;;;;;;;;;;14.19;60.33;98728.00;7369749;19;19990;-75
2023/05/24 10:10:12;;;;;;;;;;;;;;;14.15;60.00;98720.53;7383868;19;19939;-76
2023/05/24 10:12:42;;;;;;;;;;;;;;;14.25;60.30;98726.50;7379992;19;19927;-76
2023/05/24 10:15:09;;;;;;;;;;;;;;;14.05;60.19;98724.19;7374783;19;19918;-75
2023/05/24 10:17:36;;;;;;;;;;;;;;;13.88;60.44;98727.88;7381409;19;19919;-78
2023/05/24 10:20:05;;;;;;;;;;;;;;;14.05;60.44;98723.38;7376120;19;19929;-76
2023/05/24 10:22:36;;;;;;;;;;;;;;;14.11;60.96;98725.34;7376913;19;19932;-76
2023/05/24 10:25:04;;;;;;;;;;;;;;;13.91;60.13;98727.53;7377132;19;19915;-77
2023/05/24 10:27:31;;;;;;;;;;;;;;;13.96;60.39;98722.56;7382962;19;19926;-76
2023/05/24 10:30:02;;;;;;;;;;;;;;;13.95;61.21;98726.19;7378801;19;20344;-77
2023/05/24 10:32:33;;;;;;;;;;;;;;;14.22;61.40;98724.16;7375455;19;19919;-75
2023/05/24 10:35:00;;;;;;;;;;;;;;;14.27;60.79;98730.63;7380426;19;19919;-75
2023/05/24 10:37:27;;;;;;;;;;;;;;;13.98;58.61;98723.22;7376352;19;20253;-76
2023/05/24 10:39:54;;;;;;;;;;;;;;;14.23;59.73;98717.84;7375990;19;20365;-76
2023/05/24 10:42:20;;;;;;;;;;;;;;;14.11;58.67;98721.84;7377456;19;20252;-75
2023/05/24 10:44:51;;;;;;;;;;;;;;;14.41;59.24;98715.78;7375649;19;19946;-75
2023/05/24 10:47:19;;;;;;;;;;;;;;;14.60;59.26;98716.41;7377689;19;19998;-75
2023/05/24 10:49:53;;;;;;;;;;;;;;;14.54;59.40;98709.94;7377632;19;20123;-76
2023/05/24 10:52:20;;;;;;;;;;;;;;;14.67;59.36;98706.72;7372281;19;19927;-75
2023/05/24 10:55:06;;;;;;;;;;;;;;;14.92;60.41;98705.56;7379605;19;19941;-77
2023/05/24 10:57:34;;;;;;;;;;;;;;;14.73;57.77;98703.38;7382926;19;20345;-76
2023/05/24 11:00:26;;;;;;;;;;;;;;;14.59;57.05;98701.44;7379231;19;19931;-75
2023/05/24 11:03:00;;;;;;;;;;;;;;;14.83;57.46;98706.66;7376818;19;19934;-76
2023/05/24 11:05:31;;;;;;;;;;;;;;;15.03;57.72;98700.84;7375383;19;19982;-77
2023/05/24 11:07:58;;;;;;;;;;;;;;;15.19;57.66;98697.25;7375372;19;20253;-75
2023/05/24 11:10:31;;;;;;;;;;;;;;;14.85;55.75;98696.66;7378458;19;19921;-79
2023/05/24 11:13:01;;;;;;;;;;;;;;;15.03;57.93;98693.69;7376863;19;19922;-77
2023/05/24 11:15:28;;;;;;;;;;;;;;;15.23;57.05;98699.41;7376365;19;19922;-77
2023/05/24 11:18:14;;;;;;;;;;;;;;;15.43;56.29;98698.91;7381386;19;19951;-76
2023/05/24 11:20:45;;;;;;;;;;;;;;;15.78;57.45;98686.81;7377408;19;20369;-78
2023/05/24 11:23:13;;;;;;;;;;;;;;;15.87;53.52;98692.91;7372207;19;21078;-75
2023/05/24 11:25:40;;;;;;;;;;;;;;;15.75;53.23;98696.00;7379697;19;19927;-79
2023/05/24 11:28:10;;;;;;;;;;;;;;;15.69;52.96;98683.41;7376964;19;19911;-80
2023/05/24 11:30:38;;;;;;;;;;;;;;;15.69;53.20;98686.06;7382600;19;19919;-78
2023/05/24 11:33:05;;;;;;;;;;;;;;;15.56;51.81;98689.31;7382190;19;20403;-79
2023/05/24 11:35:32;;;;;;;;;;;;;;;15.55;51.96;98684.16;7384676;19;19943;-80
2023/05/24 11:37:58;;;;;;;;;;;;;;;15.64;51.90;98680.41;7379870;19;20012;-78
2023/05/24 11:40:25;;;;;;;;;;;;;;;15.54;51.73;98680.66;7382184;19;19915;-81
2023/05/24 11:42:52;;;;;;;;;;;;;;;15.25;51.79;98678.72;7380210;19;19919;-78
2023/05/24 11:45:22;;;;;;;;;;;;;;;15.49;51.94;98682.22;7373878;19;19915;-81
2023/05/24 11:47:49;;;;;;;;;;;;;;;15.66;50.72;98678.38;7386945;19;19919;-81
2023/05/24 11:50:16;;;;;;;;;;;;;;;15.79;49.86;98675.94;7379845;19;19960;-77
2023/05/24 11:52:42;;;;;;;;;;;;;;;15.89;48.40;98672.19;7374126;19;20250;-80
2023/05/24 11:55:12;;;;;;;;;;;;;;;15.70;49.77;98669.06;7378893;19;19922;-78
2023/05/24 11:57:42;;;;;;;;;;;;;;;15.85;48.64;98670.91;7382294;19;19918;-81
2023/05/24 12:00:15;;;;;;;;;;;;;;;16.15;52.12;98671.75;7375142;19;19923;-78
2023/05/24 12:02:42;;;;;;;;;;;;;;;16.13;47.70;98663.09;7379750;19;20396;-77
2023/05/24 12:05:10;;;;;;;;;;;;;;;16.33;48.22;98655.38;7376398;19;19987;-78
2023/05/24 12:07:37;;;;;;;;;;;;;;;16.55;49.11;98657.06;7378080;19;19918;-77
2023/05/24 12:10:04;;;;;;;;;;;;;;;17.01;47.67;98647.94;7376562;19;20002;-76
2023/05/24 12:12:32;;;;;;;;;;;;;;;17.36;48.62;98658.78;7365823;19;19974;-74
2023/05/24 12:15:11;;;;;;;;;;;;;;;17.77;47.21;98656.22;7370497;19;19921;-75
2023/05/24 12:17:38;;;;;;;;;;;;;;;17.19;43.78;98661.69;7381021;19;19990;-81
2023/05/24 12:20:05;;;;;;;;;;;;;;;17.44;45.81;98658.66;7382573;19;19926;-75
2023/05/24 12:22:32;;;;;;;;;;;;;;;17.53;45.17;98652.94;7376648;19;20267;-78
2023/05/24 12:24:59;;;;;;;;;;;;;;;17.62;47.28;98645.63;7374497;19;19987;-76
2023/05/24 12:27:30;;;;;;;;;;;;;;;17.52;45.93;98643.28;7374674;19;19911;-76
2023/05/24 12:29:56;;;;;;;;;;;;;;;17.43;46.18;98644.44;7373428;19;19919;-76
2023/05/24 12:32:23;;;;;;;;;;;;;;;17.60;46.69;98644.97;7369056;19;19929;-75
2023/05/24 12:34:50;;;;;;;;;;;;;;;17.71;46.27;98640.94;7376385;19;19950;-75
2023/05/24 12:37:17;;;;;;;;;;;;;;;17.53;47.20;98631.53;7369423;19;19974;-74
2023/05/24 12:39:44;;;;;;;;;;;;;;;17.44;44.79;98635.41;7375777;19;21206;-74
2023/05/24 12:42:12;;;;;;;;;;;;;;;17.46;46.30;98641.38;7371314;19;19923;-77
2023/05/24 12:44:39;;;;;;;;;;;;;;;17.58;48.49;98635.50;7373825;19;19922;-73
2023/05/24 12:47:06;;;;;;;;;;;;;;;17.58;47.31;98632.81;7372178;19;19918;-75
2023/05/24 12:49:34;;;;;;;;;;;;;;;17.58;45.85;98630.97;7369036;19;20010;-75
2023/05/24 12:52:01;;;;;;;;;;;;;;;17.56;44.27;98627.66;7371150;19;19918;-76